sensor_id;sensor_type;location;lat;lon;timestamp;pressure;altitude;pressure_sealevel;temperature;humidity
53340;BME280;46212;50.258;19.062;2022-11-20T00:00:53;98237.19;;;-6.92;83.98
53340;BME280;46212;50.258;19.062;2022-11-20T00:03:19;98249.63;;;-6.84;83.80
53340;BME280;46212;50.258;19.062;2022-11-20T00:05:44;98239.34;;;-6.97;83.57
53340;BME280;46212;50.258;19.062;2022-11-20T00:08:10;98249.81;;;-6.92;83.96
53340;BME280;46212;50.258;19.062;2022-11-20T00:10:37;98248.25;;;-6.93;84.30
53340;BME280;46212;50.258;19.062;2022-11-20T00:13:02;98236.06;;;-7.07;84.13
53340;BME280;46212;50.258;19.062;2022-11-20T00:15:28;98226.81;;;-7.09;83.92
53340;BME280;46212;50.258;19.062;2022-11-20T00:17:53;98237.53;;;-6.93;84.05
53340;BME280;46212;50.258;19.062;2022-11-20T00:20:18;98231.03;;;-6.92;83.71
53340;BME280;46212;50.258;19.062;2022-11-20T00:22:44;98230.66;;;-6.91;84.03
53340;BME280;46212;50.258;19.062;2022-11-20T00:25:09;98236.81;;;-6.90;83.94
53340;BME280;46212;50.258;19.062;2022-11-20T00:27:35;98244.34;;;-6.80;84.23
53340;BME280;46212;50.258;19.062;2022-11-20T00:30:00;98236.00;;;-6.75;84.96
53340;BME280;46212;50.258;19.062;2022-11-20T00:32:26;98222.09;;;-6.62;85.63
53340;BME280;46212;50.258;19.062;2022-11-20T00:34:51;98244.38;;;-6.42;85.42
53340;BME280;46212;50.258;19.062;2022-11-20T00:37:16;98246.28;;;-6.62;85.05
53340;BME280;46212;50.258;19.062;2022-11-20T00:39:42;98228.88;;;-6.68;85.02
53340;BME280;46212;50.258;19.062;2022-11-20T00:42:07;98244.28;;;-6.65;84.68
53340;BME280;46212;50.258;19.062;2022-11-20T00:44:32;98236.94;;;-6.68;84.99
53340;BME280;46212;50.258;19.062;2022-11-20T00:46:57;98222.88;;;-6.80;84.76
53340;BME280;46212;50.258;19.062;2022-11-20T00:49:23;98234.19;;;-6.71;84.77
53340;BME280;46212;50.258;19.062;2022-11-20T00:51:48;98242.19;;;-6.90;84.66
53340;BME280;46212;50.258;19.062;2022-11-20T00:54:13;98235.22;;;-6.95;84.04
53340;BME280;46212;50.258;19.062;2022-11-20T00:56:39;98225.34;;;-7.07;83.42
53340;BME280;46212;50.258;19.062;2022-11-20T00:59:05;98226.69;;;-6.97;83.32
53340;BME280;46212;50.258;19.062;2022-11-20T01:01:30;98222.91;;;-6.96;83.20
53340;BME280;46212;50.258;19.062;2022-11-20T01:03:58;98224.47;;;-6.95;83.07
53340;BME280;46212;50.258;19.062;2022-11-20T01:06:27;98225.50;;;-7.00;83.09
53340;BME280;46212;50.258;19.062;2022-11-20T01:08:55;98212.91;;;-7.15;83.15
53340;BME280;46212;50.258;19.062;2022-11-20T01:11:24;98230.28;;;-7.09;83.28
53340;BME280;46212;50.258;19.062;2022-11-20T01:13:51;98209.63;;;-7.24;83.86
53340;BME280;46212;50.258;19.062;2022-11-20T01:16:20;98219.75;;;-7.17;84.15
53340;BME280;46212;50.258;19.062;2022-11-20T01:18:48;98214.09;;;-7.12;84.01
53340;BME280;46212;50.258;19.062;2022-11-20T01:21:20;98202.19;;;-7.30;84.67
53340;BME280;46212;50.258;19.062;2022-11-20T01:23:47;98214.22;;;-7.24;84.90
53340;BME280;46212;50.258;19.062;2022-11-20T01:26:23;98211.16;;;-7.23;84.92
53340;BME280;46212;50.258;19.062;2022-11-20T01:28:49;98215.84;;;-7.20;84.54
53340;BME280;46212;50.258;19.062;2022-11-20T01:31:27;98196.63;;;-7.22;84.92
53340;BME280;46212;50.258;19.062;2022-11-20T01:33:53;98208.03;;;-7.09;85.19
53340;BME280;46212;50.258;19.062;2022-11-20T01:36:20;98186.50;;;-7.13;85.08
53340;BME280;46212;50.258;19.062;2022-11-20T01:38:46;98203.69;;;-6.98;85.13
53340;BME280;46212;50.258;19.062;2022-11-20T01:41:14;98177.03;;;-7.07;85.19
53340;BME280;46212;50.258;19.062;2022-11-20T01:44:00;98188.88;;;-6.92;85.07
53340;BME280;46212;50.258;19.062;2022-11-20T01:46:26;98188.72;;;-6.99;84.50
53340;BME280;46212;50.258;19.062;2022-11-20T01:51:39;98173.59;;;-7.07;84.19
53340;BME280;46212;50.258;19.062;2022-11-20T01:54:11;98161.34;;;-7.24;84.07
53340;BME280;46212;50.258;19.062;2022-11-20T01:56:39;98167.91;;;-7.21;83.36
53340;BME280;46212;50.258;19.062;2022-11-20T01:59:08;98175.97;;;-7.21;82.93
53340;BME280;46212;50.258;19.062;2022-11-20T02:01:35;98187.59;;;-7.33;82.98
53340;BME280;46212;50.258;19.062;2022-11-20T02:04:01;98185.47;;;-7.24;83.16
53340;BME280;46212;50.258;19.062;2022-11-20T02:06:29;98184.94;;;-7.14;82.86
53340;BME280;46212;50.258;19.062;2022-11-20T02:08:56;98174.91;;;-7.32;82.52
53340;BME280;46212;50.258;19.062;2022-11-20T02:11:22;98166.97;;;-7.44;82.03
53340;BME280;46212;50.258;19.062;2022-11-20T02:13:47;98183.00;;;-7.48;82.46
53340;BME280;46212;50.258;19.062;2022-11-20T02:16:16;98184.97;;;-7.45;82.50
53340;BME280;46212;50.258;19.062;2022-11-20T02:18:44;98195.38;;;-7.43;83.33
53340;BME280;46212;50.258;19.062;2022-11-20T02:26:23;98203.50;;;-7.56;84.40
53340;BME280;46212;50.258;19.062;2022-11-20T02:28:50;98204.44;;;-7.64;84.93
53340;BME280;46212;50.258;19.062;2022-11-20T02:31:15;98198.16;;;-7.71;85.37
53340;BME280;46212;50.258;19.062;2022-11-20T02:33:41;98217.78;;;-7.51;85.37
53340;BME280;46212;50.258;19.062;2022-11-20T02:36:08;98199.44;;;-7.65;85.63
53340;BME280;46212;50.258;19.062;2022-11-20T02:38:36;98207.72;;;-7.55;85.79
53340;BME280;46212;50.258;19.062;2022-11-20T02:41:02;98198.16;;;-7.56;85.49
53340;BME280;46212;50.258;19.062;2022-11-20T02:43:27;98199.34;;;-7.53;85.00
53340;BME280;46212;50.258;19.062;2022-11-20T02:45:53;98219.31;;;-7.35;85.04
53340;BME280;46212;50.258;19.062;2022-11-20T02:48:18;98206.53;;;-7.41;85.04
53340;BME280;46212;50.258;19.062;2022-11-20T02:50:43;98224.00;;;-7.32;85.11
53340;BME280;46212;50.258;19.062;2022-11-20T02:53:09;98222.97;;;-7.27;84.95
53340;BME280;46212;50.258;19.062;2022-11-20T02:55:35;98215.25;;;-7.29;84.74
53340;BME280;46212;50.258;19.062;2022-11-20T02:58:01;98211.25;;;-7.19;84.90
53340;BME280;46212;50.258;19.062;2022-11-20T03:00:26;98212.81;;;-7.18;84.50
53340;BME280;46212;50.258;19.062;2022-11-20T03:02:51;98198.13;;;-7.40;84.25
53340;BME280;46212;50.258;19.062;2022-11-20T03:05:17;98199.75;;;-7.35;84.14
53340;BME280;46212;50.258;19.062;2022-11-20T03:07:43;98208.06;;;-7.25;84.32
53340;BME280;46212;50.258;19.062;2022-11-20T03:10:09;98207.78;;;-7.20;84.39
53340;BME280;46212;50.258;19.062;2022-11-20T03:12:34;98209.72;;;-7.20;84.40
53340;BME280;46212;50.258;19.062;2022-11-20T03:14:59;98208.31;;;-7.14;84.11
53340;BME280;46212;50.258;19.062;2022-11-20T03:17:25;98196.91;;;-7.27;84.18
53340;BME280;46212;50.258;19.062;2022-11-20T03:19:50;98205.56;;;-7.18;84.10
53340;BME280;46212;50.258;19.062;2022-11-20T03:22:16;98207.97;;;-7.28;84.01
53340;BME280;46212;50.258;19.062;2022-11-20T03:24:41;98212.94;;;-7.30;84.09
53340;BME280;46212;50.258;19.062;2022-11-20T03:27:06;98187.31;;;-7.43;83.90
53340;BME280;46212;50.258;19.062;2022-11-20T03:29:32;98211.72;;;-7.33;83.68
53340;BME280;46212;50.258;19.062;2022-11-20T03:31:57;98213.53;;;-7.37;83.23
53340;BME280;46212;50.258;19.062;2022-11-20T03:34:23;98198.06;;;-7.59;82.57
53340;BME280;46212;50.258;19.062;2022-11-20T03:36:48;98203.75;;;-7.45;82.61
53340;BME280;46212;50.258;19.062;2022-11-20T03:39:13;98205.50;;;-7.53;82.18
53340;BME280;46212;50.258;19.062;2022-11-20T03:41:40;98204.53;;;-7.60;82.22
53340;BME280;46212;50.258;19.062;2022-11-20T03:44:08;98208.44;;;-7.58;82.41
53340;BME280;46212;50.258;19.062;2022-11-20T03:46:34;98212.75;;;-7.53;82.31
53340;BME280;46212;50.258;19.062;2022-11-20T03:49:00;98195.13;;;-7.70;82.08
53340;BME280;46212;50.258;19.062;2022-11-20T03:51:28;98207.72;;;-7.70;81.71
53340;BME280;46212;50.258;19.062;2022-11-20T03:53:55;98202.81;;;-7.84;81.98
53340;BME280;46212;50.258;19.062;2022-11-20T03:56:27;98216.53;;;-8.01;82.34
53340;BME280;46212;50.258;19.062;2022-11-20T03:58:52;98212.47;;;-7.95;82.05
53340;BME280;46212;50.258;19.062;2022-11-20T04:01:30;98193.00;;;-8.08;82.36
53340;BME280;46212;50.258;19.062;2022-11-20T04:03:56;98190.81;;;-8.18;82.18
53340;BME280;46212;50.258;19.062;2022-11-20T04:06:26;98206.69;;;-7.97;82.49
53340;BME280;46212;50.258;19.062;2022-11-20T04:08:54;98207.72;;;-7.86;83.21
53340;BME280;46212;50.258;19.062;2022-11-20T04:11:27;98200.28;;;-7.77;83.28
53340;BME280;46212;50.258;19.062;2022-11-20T04:13:56;98202.63;;;-7.75;83.49
53340;BME280;46212;50.258;19.062;2022-11-20T04:16:23;98200.22;;;-7.65;83.56
53340;BME280;46212;50.258;19.062;2022-11-20T04:18:52;98201.44;;;-7.62;83.53
53340;BME280;46212;50.258;19.062;2022-11-20T04:21:18;98201.84;;;-7.60;83.83
53340;BME280;46212;50.258;19.062;2022-11-20T04:23:43;98198.31;;;-7.64;83.53
53340;BME280;46212;50.258;19.062;2022-11-20T04:26:11;98189.59;;;-7.61;83.22
53340;BME280;46212;50.258;19.062;2022-11-20T04:28:37;98196.25;;;-7.55;83.26
53340;BME280;46212;50.258;19.062;2022-11-20T04:31:12;98191.13;;;-7.60;82.92
53340;BME280;46212;50.258;19.062;2022-11-20T04:33:38;98181.47;;;-7.65;83.16
53340;BME280;46212;50.258;19.062;2022-11-20T04:36:11;98166.84;;;-7.83;83.09
53340;BME280;46212;50.258;19.062;2022-11-20T04:38:37;98177.53;;;-7.98;83.00
53340;BME280;46212;50.258;19.062;2022-11-20T04:41:05;98178.22;;;-8.01;82.89
53340;BME280;46212;50.258;19.062;2022-11-20T04:43:31;98172.84;;;-8.17;83.06
53340;BME280;46212;50.258;19.062;2022-11-20T04:45:57;98179.50;;;-8.11;82.77
53340;BME280;46212;50.258;19.062;2022-11-20T04:48:24;98171.22;;;-8.22;83.39
53340;BME280;46212;50.258;19.062;2022-11-20T04:50:51;98147.63;;;-8.16;83.19
53340;BME280;46212;50.258;19.062;2022-11-20T04:53:17;98170.03;;;-8.09;82.92
53340;BME280;46212;50.258;19.062;2022-11-20T04:55:42;98157.25;;;-7.99;82.74
53340;BME280;46212;50.258;19.062;2022-11-20T04:58:07;98142.28;;;-8.16;83.13
53340;BME280;46212;50.258;19.062;2022-11-20T05:00:33;98155.94;;;-8.05;83.68
53340;BME280;46212;50.258;19.062;2022-11-20T05:02:58;98158.38;;;-8.00;83.55
53340;BME280;46212;50.258;19.062;2022-11-20T05:05:24;98148.63;;;-7.93;83.07
53340;BME280;46212;50.258;19.062;2022-11-20T05:07:49;98142.81;;;-7.95;83.07
53340;BME280;46212;50.258;19.062;2022-11-20T05:10:15;98146.44;;;-7.87;82.92
53340;BME280;46212;50.258;19.062;2022-11-20T05:12:40;98144.47;;;-7.90;83.15
53340;BME280;46212;50.258;19.062;2022-11-20T05:15:06;98144.59;;;-7.99;83.00
53340;BME280;46212;50.258;19.062;2022-11-20T05:17:31;98149.81;;;-8.06;82.97
53340;BME280;46212;50.258;19.062;2022-11-20T05:19:57;98128.09;;;-8.17;82.58
53340;BME280;46212;50.258;19.062;2022-11-20T05:22:22;98123.44;;;-8.20;82.51
53340;BME280;46212;50.258;19.062;2022-11-20T05:24:47;98113.59;;;-8.16;82.27
53340;BME280;46212;50.258;19.062;2022-11-20T05:27:13;98129.38;;;-8.26;82.39
53340;BME280;46212;50.258;19.062;2022-11-20T05:29:38;98126.63;;;-8.14;82.40
53340;BME280;46212;50.258;19.062;2022-11-20T05:32:04;98108.16;;;-8.35;82.37
53340;BME280;46212;50.258;19.062;2022-11-20T05:34:31;98137.50;;;-8.23;82.49
53340;BME280;46212;50.258;19.062;2022-11-20T05:36:56;98129.19;;;-8.49;83.07
53340;BME280;46212;50.258;19.062;2022-11-20T05:39:21;98133.81;;;-8.34;83.15
53340;BME280;46212;50.258;19.062;2022-11-20T05:41:47;98136.25;;;-8.29;82.99
53340;BME280;46212;50.258;19.062;2022-11-20T05:44:32;98131.38;;;-8.23;82.78
53340;BME280;46212;50.258;19.062;2022-11-20T05:46:57;98133.56;;;-8.13;82.67
53340;BME280;46212;50.258;19.062;2022-11-20T05:49:23;98130.97;;;-8.10;82.42
53340;BME280;46212;50.258;19.062;2022-11-20T05:51:48;98134.06;;;-8.08;82.85
53340;BME280;46212;50.258;19.062;2022-11-20T05:54:13;98115.13;;;-8.15;82.74
53340;BME280;46212;50.258;19.062;2022-11-20T05:56:38;98134.84;;;-7.91;82.74
53340;BME280;46212;50.258;19.062;2022-11-20T05:59:04;98138.91;;;-7.97;82.43
53340;BME280;46212;50.258;19.062;2022-11-20T06:01:29;98138.91;;;-7.97;82.38
53340;BME280;46212;50.258;19.062;2022-11-20T06:03:54;98134.75;;;-7.95;82.07
53340;BME280;46212;50.258;19.062;2022-11-20T06:06:20;98132.59;;;-7.89;82.04
53340;BME280;46212;50.258;19.062;2022-11-20T06:08:46;98139.59;;;-8.00;82.08
53340;BME280;46212;50.258;19.062;2022-11-20T06:11:13;98138.03;;;-8.01;81.79
53340;BME280;46212;50.258;19.062;2022-11-20T06:13:39;98135.03;;;-8.16;81.79
53340;BME280;46212;50.258;19.062;2022-11-20T06:16:05;98128.38;;;-8.22;81.97
53340;BME280;46212;50.258;19.062;2022-11-20T06:18:31;98129.13;;;-8.37;81.71
53340;BME280;46212;50.258;19.062;2022-11-20T06:21:06;98141.84;;;-8.18;81.94
53340;BME280;46212;50.258;19.062;2022-11-20T06:23:33;98148.31;;;-8.19;81.79
53340;BME280;46212;50.258;19.062;2022-11-20T06:26:05;98133.03;;;-8.19;81.84
53340;BME280;46212;50.258;19.062;2022-11-20T06:28:31;98133.66;;;-8.10;81.93
53340;BME280;46212;50.258;19.062;2022-11-20T06:30:57;98130.38;;;-8.03;82.08
53340;BME280;46212;50.258;19.062;2022-11-20T06:33:23;98125.00;;;-7.87;81.48
53340;BME280;46212;50.258;19.062;2022-11-20T06:35:48;98134.34;;;-7.81;81.51
53340;BME280;46212;50.258;19.062;2022-11-20T06:38:13;98139.19;;;-7.71;81.73
53340;BME280;46212;50.258;19.062;2022-11-20T06:40:42;98124.88;;;-7.60;81.69
53340;BME280;46212;50.258;19.062;2022-11-20T06:43:09;98138.56;;;-7.49;81.24
53340;BME280;46212;50.258;19.062;2022-11-20T06:45:35;98136.00;;;-7.42;81.28
53340;BME280;46212;50.258;19.062;2022-11-20T06:48:00;98103.06;;;-7.42;81.05
53340;BME280;46212;50.258;19.062;2022-11-20T06:50:26;98107.59;;;-7.27;80.83
53340;BME280;46212;50.258;19.062;2022-11-20T06:52:51;98109.00;;;-7.33;80.61
53340;BME280;46212;50.258;19.062;2022-11-20T06:55:17;98115.25;;;-7.45;80.48
53340;BME280;46212;50.258;19.062;2022-11-20T06:57:42;98116.56;;;-7.55;81.17
53340;BME280;46212;50.258;19.062;2022-11-20T07:00:08;98109.84;;;-7.48;81.45
53340;BME280;46212;50.258;19.062;2022-11-20T07:02:33;98087.59;;;-7.49;80.89
53340;BME280;46212;50.258;19.062;2022-11-20T07:04:58;98109.00;;;-7.68;81.45
53340;BME280;46212;50.258;19.062;2022-11-20T07:07:24;98088.59;;;-7.73;82.09
53340;BME280;46212;50.258;19.062;2022-11-20T07:09:49;98107.16;;;-7.48;82.21
53340;BME280;46212;50.258;19.062;2022-11-20T07:12:15;98086.97;;;-7.42;82.10
53340;BME280;46212;50.258;19.062;2022-11-20T07:14:40;98087.72;;;-7.26;81.95
53340;BME280;46212;50.258;19.062;2022-11-20T07:17:05;98105.84;;;-6.81;81.58
53340;BME280;46212;50.258;19.062;2022-11-20T07:19:30;98090.19;;;-6.60;81.03
53340;BME280;46212;50.258;19.062;2022-11-20T07:21:56;98101.56;;;-6.67;80.86
53340;BME280;46212;50.258;19.062;2022-11-20T07:24:21;98094.91;;;-6.54;81.00
53340;BME280;46212;50.258;19.062;2022-11-20T07:26:47;98089.34;;;-6.64;81.11
53340;BME280;46212;50.258;19.062;2022-11-20T07:29:14;98089.84;;;-6.36;81.07
53340;BME280;46212;50.258;19.062;2022-11-20T07:31:40;98111.44;;;-6.10;80.40
53340;BME280;46212;50.258;19.062;2022-11-20T07:34:05;98102.88;;;-5.93;80.50
53340;BME280;46212;50.258;19.062;2022-11-20T07:36:30;98083.75;;;-5.87;80.55
53340;BME280;46212;50.258;19.062;2022-11-20T07:38:56;98103.13;;;-5.75;80.86
53340;BME280;46212;50.258;19.062;2022-11-20T07:41:21;98108.06;;;-5.77;81.45
53340;BME280;46212;50.258;19.062;2022-11-20T07:43:46;98098.94;;;-5.72;81.52
53340;BME280;46212;50.258;19.062;2022-11-20T07:46:12;98103.91;;;-5.74;82.19
53340;BME280;46212;50.258;19.062;2022-11-20T07:48:37;98099.56;;;-5.56;81.65
53340;BME280;46212;50.258;19.062;2022-11-20T07:51:03;98080.38;;;-5.55;81.79
53340;BME280;46212;50.258;19.062;2022-11-20T07:53:28;98092.22;;;-5.33;81.59
53340;BME280;46212;50.258;19.062;2022-11-20T07:55:53;98098.28;;;-5.10;81.66
53340;BME280;46212;50.258;19.062;2022-11-20T07:58:20;98095.16;;;-5.15;81.43
53340;BME280;46212;50.258;19.062;2022-11-20T08:00:45;98104.31;;;-5.20;82.47
53340;BME280;46212;50.258;19.062;2022-11-20T08:03:11;98109.50;;;-5.08;83.48
53340;BME280;46212;50.258;19.062;2022-11-20T08:05:36;98086.44;;;-5.05;83.70
53340;BME280;46212;50.258;19.062;2022-11-20T08:08:02;98119.00;;;-4.84;84.05
53340;BME280;46212;50.258;19.062;2022-11-20T08:10:28;98113.41;;;-5.02;84.45
53340;BME280;46212;50.258;19.062;2022-11-20T08:12:53;98100.59;;;-5.12;85.34
53340;BME280;46212;50.258;19.062;2022-11-20T08:15:39;98113.69;;;-4.80;85.18
53340;BME280;46212;50.258;19.062;2022-11-20T08:18:09;98114.59;;;-4.69;85.46
53340;BME280;46212;50.258;19.062;2022-11-20T08:20:36;98094.75;;;-4.54;85.19
53340;BME280;46212;50.258;19.062;2022-11-20T08:23:04;98108.03;;;-4.35;84.61
53340;BME280;46212;50.258;19.062;2022-11-20T08:25:31;98110.41;;;-4.30;84.55
53340;BME280;46212;50.258;19.062;2022-11-20T08:27:58;98097.03;;;-4.19;84.07
53340;BME280;46212;50.258;19.062;2022-11-20T08:30:24;98109.25;;;-3.89;84.00
53340;BME280;46212;50.258;19.062;2022-11-20T08:32:49;98102.88;;;-3.66;82.98
53340;BME280;46212;50.258;19.062;2022-11-20T08:35:14;98121.16;;;-3.42;82.94
53340;BME280;46212;50.258;19.062;2022-11-20T08:37:40;98120.56;;;-3.22;82.88
53340;BME280;46212;50.258;19.062;2022-11-20T08:40:10;98111.41;;;-3.03;82.37
53340;BME280;46212;50.258;19.062;2022-11-20T08:42:36;98111.47;;;-2.85;82.15
53340;BME280;46212;50.258;19.062;2022-11-20T08:45:02;98111.53;;;-2.75;82.06
53340;BME280;46212;50.258;19.062;2022-11-20T08:47:28;98121.31;;;-2.45;82.06
53340;BME280;46212;50.258;19.062;2022-11-20T08:49:53;98122.91;;;-2.23;81.48
53340;BME280;46212;50.258;19.062;2022-11-20T08:52:18;98120.88;;;-2.47;82.13
53340;BME280;46212;50.258;19.062;2022-11-20T08:54:44;98126.28;;;-2.54;82.56
53340;BME280;46212;50.258;19.062;2022-11-20T08:57:09;98111.91;;;-2.73;83.95
53340;BME280;46212;50.258;19.062;2022-11-20T08:59:34;98109.66;;;-2.60;84.33
53340;BME280;46212;50.258;19.062;2022-11-20T09:02:00;98110.06;;;-2.54;84.40
53340;BME280;46212;50.258;19.062;2022-11-20T09:04:25;98100.03;;;-2.47;84.19
53340;BME280;46212;50.258;19.062;2022-11-20T09:06:50;98102.44;;;-2.21;85.08
53340;BME280;46212;50.258;19.062;2022-11-20T09:09:17;98105.19;;;-1.71;83.35
53340;BME280;46212;50.258;19.062;2022-11-20T09:11:43;98100.16;;;-1.55;82.27
53340;BME280;46212;50.258;19.062;2022-11-20T09:14:08;98108.28;;;-1.51;82.49
53340;BME280;46212;50.258;19.062;2022-11-20T09:16:34;98098.22;;;-1.62;82.11
53340;BME280;46212;50.258;19.062;2022-11-20T09:18:59;98085.09;;;-1.70;81.69
53340;BME280;46212;50.258;19.062;2022-11-20T09:21:24;98097.44;;;-1.30;81.41
53340;BME280;46212;50.258;19.062;2022-11-20T09:23:50;98096.25;;;-1.19;81.09
53340;BME280;46212;50.258;19.062;2022-11-20T09:26:15;98103.91;;;-0.85;80.83
53340;BME280;46212;50.258;19.062;2022-11-20T09:28:41;98097.66;;;-0.72;80.43
53340;BME280;46212;50.258;19.062;2022-11-20T09:31:07;98102.66;;;-0.60;79.15
53340;BME280;46212;50.258;19.062;2022-11-20T09:33:33;98086.16;;;-1.04;79.85
53340;BME280;46212;50.258;19.062;2022-11-20T09:35:59;98088.06;;;-1.01;80.58
53340;BME280;46212;50.258;19.062;2022-11-20T09:38:25;98101.25;;;-0.92;80.24
53340;BME280;46212;50.258;19.062;2022-11-20T09:41:00;98100.47;;;-1.03;79.96
53340;BME280;46212;50.258;19.062;2022-11-20T09:43:41;98101.06;;;-0.54;79.82
53340;BME280;46212;50.258;19.062;2022-11-20T09:51:53;98088.25;;;0.16;79.18
53340;BME280;46212;50.258;19.062;2022-11-20T09:54:46;98074.88;;;-0.12;79.17
53340;BME280;46212;50.258;19.062;2022-11-20T09:57:23;98080.88;;;0.20;78.24
53340;BME280;46212;50.258;19.062;2022-11-20T09:59:56;98074.63;;;0.23;77.89
53340;BME280;46212;50.258;19.062;2022-11-20T10:04:55;98074.34;;;0.59;77.46
53340;BME280;46212;50.258;19.062;2022-11-20T10:09:55;98059.47;;;0.70;76.34
53340;BME280;46212;50.258;19.062;2022-11-20T10:17:52;98057.09;;;1.13;74.13
53340;BME280;46212;50.258;19.062;2022-11-20T10:30:43;98059.44;;;0.74;74.78
53340;BME280;46212;50.258;19.062;2022-11-20T10:33:22;98032.53;;;0.83;75.45
53340;BME280;46212;50.258;19.062;2022-11-20T10:38:43;98044.47;;;1.30;73.59
53340;BME280;46212;50.258;19.062;2022-11-20T10:41:20;98041.25;;;1.65;72.17
53340;BME280;46212;50.258;19.062;2022-11-20T10:43:57;98024.25;;;1.57;72.22
53340;BME280;46212;50.258;19.062;2022-11-20T10:46:32;98018.59;;;1.98;70.12
53340;BME280;46212;50.258;19.062;2022-11-20T10:49:00;98027.13;;;2.00;69.89
53340;BME280;46212;50.258;19.062;2022-11-20T10:54:50;98022.22;;;2.15;69.13
53340;BME280;46212;50.258;19.062;2022-11-20T10:57:56;98027.31;;;2.13;68.19
53340;BME280;46212;50.258;19.062;2022-11-20T11:00:26;98024.81;;;1.99;68.80
53340;BME280;46212;50.258;19.062;2022-11-20T11:02:53;98003.75;;;2.26;67.63
53340;BME280;46212;50.258;19.062;2022-11-20T11:05:22;98017.06;;;2.21;67.47
53340;BME280;46212;50.258;19.062;2022-11-20T11:07:54;98016.34;;;1.67;70.36
53340;BME280;46212;50.258;19.062;2022-11-20T11:10:32;98014.69;;;2.23;68.75
53340;BME280;46212;50.258;19.062;2022-11-20T11:13:01;98005.81;;;2.42;67.82
53340;BME280;46212;50.258;19.062;2022-11-20T11:15:39;98008.28;;;2.56;67.25
53340;BME280;46212;50.258;19.062;2022-11-20T11:18:08;98004.28;;;2.84;66.57
53340;BME280;46212;50.258;19.062;2022-11-20T11:20:34;98005.66;;;3.31;64.37
53340;BME280;46212;50.258;19.062;2022-11-20T11:23:00;98016.09;;;3.88;64.00
53340;BME280;46212;50.258;19.062;2022-11-20T11:25:36;98009.28;;;3.44;64.42
53340;BME280;46212;50.258;19.062;2022-11-20T11:30:44;97998.41;;;3.60;64.47
53340;BME280;46212;50.258;19.062;2022-11-20T11:33:11;98012.16;;;3.37;64.11
53340;BME280;46212;50.258;19.062;2022-11-20T11:35:49;98006.38;;;3.15;65.53
53340;BME280;46212;50.258;19.062;2022-11-20T11:41:01;98002.50;;;3.68;62.39
53340;BME280;46212;50.258;19.062;2022-11-20T11:43:32;98019.72;;;3.65;63.18
53340;BME280;46212;50.258;19.062;2022-11-20T11:49:14;98002.53;;;3.33;64.41
53340;BME280;46212;50.258;19.062;2022-11-20T11:54:47;97977.00;;;3.23;63.24
53340;BME280;46212;50.258;19.062;2022-11-20T11:57:41;97970.97;;;2.92;64.34
53340;BME280;46212;50.258;19.062;2022-11-20T12:00:16;97964.81;;;3.08;64.12
53340;BME280;46212;50.258;19.062;2022-11-20T12:05:21;97979.16;;;3.12;64.28
53340;BME280;46212;50.258;19.062;2022-11-20T12:08:53;97968.41;;;2.65;65.38
53340;BME280;46212;50.258;19.062;2022-11-20T12:11:20;97986.72;;;2.85;65.86
53340;BME280;46212;50.258;19.062;2022-11-20T12:13:54;97965.09;;;2.54;66.00
53340;BME280;46212;50.258;19.062;2022-11-20T12:16:21;97982.88;;;2.62;66.88
53340;BME280;46212;50.258;19.062;2022-11-20T12:18:49;97981.38;;;2.58;67.70
53340;BME280;46212;50.258;19.062;2022-11-20T12:30:14;97966.28;;;2.93;66.06
53340;BME280;46212;50.258;19.062;2022-11-20T12:41:19;97938.56;;;4.31;62.63
53340;BME280;46212;50.258;19.062;2022-11-20T12:44:27;97935.50;;;4.57;60.96
53340;BME280;46212;50.258;19.062;2022-11-20T12:52:50;97916.88;;;4.81;60.48
53340;BME280;46212;50.258;19.062;2022-11-20T12:55:28;97914.38;;;4.87;59.81
53340;BME280;46212;50.258;19.062;2022-11-20T13:00:32;97901.94;;;5.36;58.99
53340;BME280;46212;50.258;19.062;2022-11-20T13:08:23;97901.47;;;5.00;59.06
53340;BME280;46212;50.258;19.062;2022-11-20T13:10:55;97910.72;;;5.31;58.57
53340;BME280;46212;50.258;19.062;2022-11-20T13:13:40;97887.91;;;5.72;57.34
53340;BME280;46212;50.258;19.062;2022-11-20T13:19:13;97893.94;;;5.92;55.72
53340;BME280;46212;50.258;19.062;2022-11-20T13:21:44;97889.84;;;5.97;55.38
53340;BME280;46212;50.258;19.062;2022-11-20T13:29:35;97894.56;;;6.09;55.06
53340;BME280;46212;50.258;19.062;2022-11-20T13:32:12;97894.81;;;5.89;55.02
53340;BME280;46212;50.258;19.062;2022-11-20T13:34:38;97888.69;;;5.60;55.79
53340;BME280;46212;50.258;19.062;2022-11-20T13:37:05;97892.25;;;4.81;57.69
53340;BME280;46212;50.258;19.062;2022-11-20T13:41:58;97889.53;;;3.62;61.21
53340;BME280;46212;50.258;19.062;2022-11-20T13:44:39;97869.81;;;3.39;62.20
53340;BME280;46212;50.258;19.062;2022-11-20T13:47:21;97867.78;;;2.91;63.55
53340;BME280;46212;50.258;19.062;2022-11-20T13:49:47;97890.25;;;2.59;64.62
53340;BME280;46212;50.258;19.062;2022-11-20T14:01:21;97881.50;;;1.85;68.29
53340;BME280;46212;50.258;19.062;2022-11-20T14:03:48;97871.97;;;1.97;68.20
53340;BME280;46212;50.258;19.062;2022-11-20T14:06:29;97878.56;;;1.76;68.60
53340;BME280;46212;50.258;19.062;2022-11-20T14:08:57;97868.38;;;1.80;68.61
53340;BME280;46212;50.258;19.062;2022-11-20T14:11:28;97863.50;;;1.68;69.43
53340;BME280;46212;50.258;19.062;2022-11-20T14:14:00;97876.38;;;1.68;70.53
53340;BME280;46212;50.258;19.062;2022-11-20T14:16:29;97873.00;;;1.33;71.04
53340;BME280;46212;50.258;19.062;2022-11-20T14:18:56;97857.88;;;1.32;71.22
53340;BME280;46212;50.258;19.062;2022-11-20T14:21:27;97851.84;;;1.21;71.76
53340;BME280;46212;50.258;19.062;2022-11-20T14:24:02;97865.22;;;1.08;71.99
53340;BME280;46212;50.258;19.062;2022-11-20T14:26:28;97841.22;;;0.77;73.45
53340;BME280;46212;50.258;19.062;2022-11-20T14:28:53;97859.38;;;0.83;73.62
53340;BME280;46212;50.258;19.062;2022-11-20T14:31:23;97865.38;;;0.71;74.16
53340;BME280;46212;50.258;19.062;2022-11-20T14:33:51;97841.03;;;0.61;74.58
53340;BME280;46212;50.258;19.062;2022-11-20T14:36:22;97868.94;;;0.65;74.10
53340;BME280;46212;50.258;19.062;2022-11-20T14:38:48;97856.03;;;0.42;75.42
53340;BME280;46212;50.258;19.062;2022-11-20T14:41:20;97857.09;;;0.48;75.56
53340;BME280;46212;50.258;19.062;2022-11-20T14:43:47;97859.88;;;0.44;75.58